La Fayette, New York
Current Conditions -  °F | °C
As of 1:34 AM on Thursday 27 Nov 2014 (Local Time) from KSYR Reporting Station
Light Snow Light Snow  
Wind Chill: 20°   Ceiling: 3900
Heat Index: 29°   Visibility: 3mi
Dew Point: 26°   Wind: 10mph
Humidity: 89%   Direction: 320°NW
Pressure: 29.99"   Gusts: NA
Location:  42.89°N, 76.1°W
Report Text: KSYR 270634Z 32009KT 3SM -SN BR FEW008 SCT016 OVC039 M02/M03 A2999 RMK AO2 P0000 T10171033
Loading
Personal Weather Stations






























Interactive Weather Map New forecast layout! Learn more

10-Day Weather Forecast

Advertisements
Track Severe Weather on mobile